sensor_id;sensor_type;location;lat;lon;timestamp;P1;durP1;ratioP1;P2;durP2;ratioP2
12725;SDS011;6427;49.754;6.106;2023-12-20T00:01:05;1.17;;;0.70;;
12725;SDS011;6427;49.754;6.106;2023-12-20T00:03:32;0.93;;;0.60;;
12725;SDS011;6427;49.754;6.106;2023-12-20T00:06:00;1.43;;;0.90;;
12725;SDS011;6427;49.754;6.106;2023-12-20T00:08:28;1.30;;;1.20;;
12725;SDS011;6427;49.754;6.106;2023-12-20T00:10:56;0.80;;;0.80;;
12725;SDS011;6427;49.754;6.106;2023-12-20T00:13:24;1.20;;;0.80;;
12725;SDS011;6427;49.754;6.106;2023-12-20T00:15:52;2.03;;;1.43;;
12725;SDS011;6427;49.754;6.106;2023-12-20T00:18:20;3.77;;;1.00;;
12725;SDS011;6427;49.754;6.106;2023-12-20T00:20:48;2.30;;;0.70;;
12725;SDS011;6427;49.754;6.106;2023-12-20T00:23:16;0.77;;;0.77;;
12725;SDS011;6427;49.754;6.106;2023-12-20T00:25:43;2.70;;;1.00;;
12725;SDS011;6427;49.754;6.106;2023-12-20T00:28:12;1.53;;;1.00;;
12725;SDS011;6427;49.754;6.106;2023-12-20T00:30:39;1.70;;;1.00;;
12725;SDS011;6427;49.754;6.106;2023-12-20T00:33:07;1.23;;;0.83;;
12725;SDS011;6427;49.754;6.106;2023-12-20T00:35:35;1.95;;;1.40;;
12725;SDS011;6427;49.754;6.106;2023-12-20T00:38:03;2.43;;;1.43;;
12725;SDS011;6427;49.754;6.106;2023-12-20T00:40:30;3.30;;;2.10;;
12725;SDS011;6427;49.754;6.106;2023-12-20T00:42:59;4.00;;;2.12;;
12725;SDS011;6427;49.754;6.106;2023-12-20T00:45:26;1.60;;;1.20;;
12725;SDS011;6427;49.754;6.106;2023-12-20T00:47:54;1.20;;;0.50;;
12725;SDS011;6427;49.754;6.106;2023-12-20T00:50:22;1.20;;;0.90;;
12725;SDS011;6427;49.754;6.106;2023-12-20T00:52:50;0.90;;;0.90;;
12725;SDS011;6427;49.754;6.106;2023-12-20T00:55:17;1.10;;;0.98;;
12725;SDS011;6427;49.754;6.106;2023-12-20T00:57:46;0.85;;;0.82;;
12725;SDS011;6427;49.754;6.106;2023-12-20T01:00:13;1.43;;;0.80;;
12725;SDS011;6427;49.754;6.106;2023-12-20T01:02:41;2.20;;;1.30;;
12725;SDS011;6427;49.754;6.106;2023-12-20T01:05:09;2.28;;;1.70;;
12725;SDS011;6427;49.754;6.106;2023-12-20T01:07:37;3.63;;;1.37;;
12725;SDS011;6427;49.754;6.106;2023-12-20T01:10:04;1.23;;;0.90;;
12725;SDS011;6427;49.754;6.106;2023-12-20T01:12:32;2.17;;;1.20;;
12725;SDS011;6427;49.754;6.106;2023-12-20T01:15:00;1.27;;;0.90;;
12725;SDS011;6427;49.754;6.106;2023-12-20T01:17:27;1.20;;;0.90;;
12725;SDS011;6427;49.754;6.106;2023-12-20T01:19:55;0.80;;;0.80;;
12725;SDS011;6427;49.754;6.106;2023-12-20T01:22:22;1.77;;;0.63;;
12725;SDS011;6427;49.754;6.106;2023-12-20T01:24:50;1.13;;;0.90;;
12725;SDS011;6427;49.754;6.106;2023-12-20T01:27:18;6.13;;;2.40;;
12725;SDS011;6427;49.754;6.106;2023-12-20T01:29:45;9.43;;;3.93;;
12725;SDS011;6427;49.754;6.106;2023-12-20T01:32:13;11.77;;;5.00;;
12725;SDS011;6427;49.754;6.106;2023-12-20T01:34:40;7.00;;;3.60;;
12725;SDS011;6427;49.754;6.106;2023-12-20T01:37:09;12.32;;;5.80;;
12725;SDS011;6427;49.754;6.106;2023-12-20T01:39:36;6.37;;;3.60;;
12725;SDS011;6427;49.754;6.106;2023-12-20T01:42:04;5.00;;;3.17;;
12725;SDS011;6427;49.754;6.106;2023-12-20T01:44:32;8.73;;;4.30;;
12725;SDS011;6427;49.754;6.106;2023-12-20T01:47:00;7.10;;;3.73;;
12725;SDS011;6427;49.754;6.106;2023-12-20T01:49:28;6.67;;;3.77;;
12725;SDS011;6427;49.754;6.106;2023-12-20T01:51:56;8.10;;;3.77;;
12725;SDS011;6427;49.754;6.106;2023-12-20T01:54:23;6.03;;;2.97;;
12725;SDS011;6427;49.754;6.106;2023-12-20T01:56:52;4.00;;;2.40;;
12725;SDS011;6427;49.754;6.106;2023-12-20T01:59:19;2.17;;;1.70;;
12725;SDS011;6427;49.754;6.106;2023-12-20T02:01:47;2.53;;;1.77;;
12725;SDS011;6427;49.754;6.106;2023-12-20T02:04:15;2.83;;;2.47;;
12725;SDS011;6427;49.754;6.106;2023-12-20T02:06:42;2.10;;;1.90;;
12725;SDS011;6427;49.754;6.106;2023-12-20T02:09:10;2.30;;;2.10;;
12725;SDS011;6427;49.754;6.106;2023-12-20T02:11:38;3.30;;;2.30;;
12725;SDS011;6427;49.754;6.106;2023-12-20T02:14:06;2.80;;;2.30;;
12725;SDS011;6427;49.754;6.106;2023-12-20T02:16:33;2.63;;;2.07;;
12725;SDS011;6427;49.754;6.106;2023-12-20T02:19:03;4.03;;;2.85;;
12725;SDS011;6427;49.754;6.106;2023-12-20T02:21:32;2.70;;;2.40;;
12725;SDS011;6427;49.754;6.106;2023-12-20T02:24:00;2.97;;;2.23;;
12725;SDS011;6427;49.754;6.106;2023-12-20T02:26:28;3.53;;;2.63;;
12725;SDS011;6427;49.754;6.106;2023-12-20T02:28:56;2.53;;;2.07;;
12725;SDS011;6427;49.754;6.106;2023-12-20T02:31:23;3.30;;;2.30;;
12725;SDS011;6427;49.754;6.106;2023-12-20T02:33:51;2.97;;;1.80;;
12725;SDS011;6427;49.754;6.106;2023-12-20T02:36:18;2.73;;;2.27;;
12725;SDS011;6427;49.754;6.106;2023-12-20T02:38:46;2.67;;;1.90;;
12725;SDS011;6427;49.754;6.106;2023-12-20T02:41:14;3.08;;;2.60;;
12725;SDS011;6427;49.754;6.106;2023-12-20T02:43:42;3.83;;;2.10;;
12725;SDS011;6427;49.754;6.106;2023-12-20T02:46:09;2.60;;;2.30;;
12725;SDS011;6427;49.754;6.106;2023-12-20T02:48:38;2.60;;;2.10;;
12725;SDS011;6427;49.754;6.106;2023-12-20T02:51:05;4.37;;;2.10;;
12725;SDS011;6427;49.754;6.106;2023-12-20T02:53:33;2.70;;;2.17;;
12725;SDS011;6427;49.754;6.106;2023-12-20T02:56:01;3.63;;;2.50;;
12725;SDS011;6427;49.754;6.106;2023-12-20T02:58:28;3.37;;;2.40;;
12725;SDS011;6427;49.754;6.106;2023-12-20T03:00:56;4.43;;;2.40;;
12725;SDS011;6427;49.754;6.106;2023-12-20T03:03:23;4.83;;;1.63;;
12725;SDS011;6427;49.754;6.106;2023-12-20T03:05:51;2.30;;;1.33;;
12725;SDS011;6427;49.754;6.106;2023-12-20T03:08:18;3.73;;;1.40;;
12725;SDS011;6427;49.754;6.106;2023-12-20T03:10:46;5.47;;;1.95;;
12725;SDS011;6427;49.754;6.106;2023-12-20T03:13:14;5.00;;;1.50;;
12725;SDS011;6427;49.754;6.106;2023-12-20T03:15:41;4.57;;;1.50;;
12725;SDS011;6427;49.754;6.106;2023-12-20T03:18:10;8.38;;;1.90;;
12725;SDS011;6427;49.754;6.106;2023-12-20T03:20:37;5.73;;;2.00;;
12725;SDS011;6427;49.754;6.106;2023-12-20T03:23:05;8.53;;;1.30;;
12725;SDS011;6427;49.754;6.106;2023-12-20T03:25:33;4.17;;;1.43;;
12725;SDS011;6427;49.754;6.106;2023-12-20T03:28:01;6.17;;;1.50;;
12725;SDS011;6427;49.754;6.106;2023-12-20T03:30:28;5.17;;;1.20;;
12725;SDS011;6427;49.754;6.106;2023-12-20T03:32:57;3.13;;;1.50;;
12725;SDS011;6427;49.754;6.106;2023-12-20T03:35:24;5.63;;;1.23;;
12725;SDS011;6427;49.754;6.106;2023-12-20T03:37:52;8.05;;;1.95;;
12725;SDS011;6427;49.754;6.106;2023-12-20T03:40:19;4.93;;;1.63;;
12725;SDS011;6427;49.754;6.106;2023-12-20T03:42:47;4.93;;;1.20;;
12725;SDS011;6427;49.754;6.106;2023-12-20T03:45:14;4.03;;;1.50;;
12725;SDS011;6427;49.754;6.106;2023-12-20T03:47:42;7.53;;;2.23;;
12725;SDS011;6427;49.754;6.106;2023-12-20T03:50:10;5.07;;;1.90;;
12725;SDS011;6427;49.754;6.106;2023-12-20T03:52:38;6.22;;;2.37;;
12725;SDS011;6427;49.754;6.106;2023-12-20T03:55:06;9.13;;;1.87;;
12725;SDS011;6427;49.754;6.106;2023-12-20T03:57:35;5.40;;;2.20;;
12725;SDS011;6427;49.754;6.106;2023-12-20T04:00:02;6.07;;;1.80;;
12725;SDS011;6427;49.754;6.106;2023-12-20T04:02:30;7.00;;;1.70;;
12725;SDS011;6427;49.754;6.106;2023-12-20T04:04:58;2.47;;;1.13;;
12725;SDS011;6427;49.754;6.106;2023-12-20T04:07:25;2.70;;;1.27;;
12725;SDS011;6427;49.754;6.106;2023-12-20T04:09:54;5.63;;;1.80;;
12725;SDS011;6427;49.754;6.106;2023-12-20T04:12:21;6.60;;;2.50;;
12725;SDS011;6427;49.754;6.106;2023-12-20T04:14:49;5.97;;;2.33;;
12725;SDS011;6427;49.754;6.106;2023-12-20T04:17:17;7.83;;;2.40;;
12725;SDS011;6427;49.754;6.106;2023-12-20T04:19:44;7.00;;;2.53;;
12725;SDS011;6427;49.754;6.106;2023-12-20T04:22:11;8.10;;;2.37;;
12725;SDS011;6427;49.754;6.106;2023-12-20T04:24:40;10.93;;;2.90;;
12725;SDS011;6427;49.754;6.106;2023-12-20T04:27:07;7.00;;;2.27;;
12725;SDS011;6427;49.754;6.106;2023-12-20T04:29:35;9.63;;;3.30;;
12725;SDS011;6427;49.754;6.106;2023-12-20T04:32:03;9.20;;;3.50;;
12725;SDS011;6427;49.754;6.106;2023-12-20T04:34:30;10.37;;;3.20;;
12725;SDS011;6427;49.754;6.106;2023-12-20T04:36:58;6.87;;;2.63;;
12725;SDS011;6427;49.754;6.106;2023-12-20T04:39:25;6.03;;;2.60;;
12725;SDS011;6427;49.754;6.106;2023-12-20T04:41:54;7.73;;;3.10;;
12725;SDS011;6427;49.754;6.106;2023-12-20T04:44:21;6.73;;;2.73;;
12725;SDS011;6427;49.754;6.106;2023-12-20T04:46:49;11.97;;;4.20;;
12725;SDS011;6427;49.754;6.106;2023-12-20T04:49:16;9.13;;;3.40;;
12725;SDS011;6427;49.754;6.106;2023-12-20T04:51:44;9.10;;;3.13;;
12725;SDS011;6427;49.754;6.106;2023-12-20T04:54:12;5.27;;;2.10;;
12725;SDS011;6427;49.754;6.106;2023-12-20T04:56:41;10.97;;;3.10;;
12725;SDS011;6427;49.754;6.106;2023-12-20T04:59:07;12.10;;;2.60;;
12725;SDS011;6427;49.754;6.106;2023-12-20T05:01:35;10.40;;;3.00;;
12725;SDS011;6427;49.754;6.106;2023-12-20T05:04:03;8.17;;;3.00;;
12725;SDS011;6427;49.754;6.106;2023-12-20T05:06:30;11.13;;;4.00;;
12725;SDS011;6427;49.754;6.106;2023-12-20T05:08:59;9.57;;;2.43;;
12725;SDS011;6427;49.754;6.106;2023-12-20T05:11:26;9.77;;;3.23;;
12725;SDS011;6427;49.754;6.106;2023-12-20T05:13:54;11.30;;;3.03;;
12725;SDS011;6427;49.754;6.106;2023-12-20T05:16:21;11.07;;;2.60;;
12725;SDS011;6427;49.754;6.106;2023-12-20T05:18:49;9.00;;;2.93;;
12725;SDS011;6427;49.754;6.106;2023-12-20T05:21:17;9.05;;;3.25;;
12725;SDS011;6427;49.754;6.106;2023-12-20T05:23:45;8.30;;;3.07;;
12725;SDS011;6427;49.754;6.106;2023-12-20T05:26:12;7.73;;;2.30;;
12725;SDS011;6427;49.754;6.106;2023-12-20T05:28:40;5.97;;;2.80;;
12725;SDS011;6427;49.754;6.106;2023-12-20T05:31:07;8.60;;;2.40;;
12725;SDS011;6427;49.754;6.106;2023-12-20T05:33:36;6.37;;;3.30;;
12725;SDS011;6427;49.754;6.106;2023-12-20T05:36:03;7.47;;;3.43;;
12725;SDS011;6427;49.754;6.106;2023-12-20T05:38:31;11.40;;;3.40;;
12725;SDS011;6427;49.754;6.106;2023-12-20T05:40:58;9.40;;;2.77;;
12725;SDS011;6427;49.754;6.106;2023-12-20T05:43:27;8.43;;;2.53;;
12725;SDS011;6427;49.754;6.106;2023-12-20T05:45:55;10.63;;;2.80;;
12725;SDS011;6427;49.754;6.106;2023-12-20T05:48:23;7.83;;;2.50;;
12725;SDS011;6427;49.754;6.106;2023-12-20T05:50:50;6.50;;;2.57;;
12725;SDS011;6427;49.754;6.106;2023-12-20T05:53:19;8.32;;;2.95;;
12725;SDS011;6427;49.754;6.106;2023-12-20T05:55:46;10.40;;;2.63;;
12725;SDS011;6427;49.754;6.106;2023-12-20T05:58:14;7.30;;;2.10;;
12725;SDS011;6427;49.754;6.106;2023-12-20T06:00:41;13.30;;;3.30;;
12725;SDS011;6427;49.754;6.106;2023-12-20T06:03:09;10.50;;;2.50;;
12725;SDS011;6427;49.754;6.106;2023-12-20T06:05:37;7.03;;;2.93;;
12725;SDS011;6427;49.754;6.106;2023-12-20T06:08:04;5.00;;;2.10;;
12725;SDS011;6427;49.754;6.106;2023-12-20T06:10:33;8.80;;;2.30;;
12725;SDS011;6427;49.754;6.106;2023-12-20T06:13:00;8.67;;;1.97;;
12725;SDS011;6427;49.754;6.106;2023-12-20T06:15:28;9.30;;;2.30;;
12725;SDS011;6427;49.754;6.106;2023-12-20T06:17:55;10.33;;;2.47;;
12725;SDS011;6427;49.754;6.106;2023-12-20T06:20:23;12.03;;;2.77;;
12725;SDS011;6427;49.754;6.106;2023-12-20T06:22:50;8.57;;;2.53;;
12725;SDS011;6427;49.754;6.106;2023-12-20T06:25:18;10.07;;;2.50;;
12725;SDS011;6427;49.754;6.106;2023-12-20T06:27:46;5.00;;;2.03;;
12725;SDS011;6427;49.754;6.106;2023-12-20T06:30:13;9.43;;;2.87;;
12725;SDS011;6427;49.754;6.106;2023-12-20T06:32:41;6.80;;;2.23;;
12725;SDS011;6427;49.754;6.106;2023-12-20T06:35:09;10.53;;;2.20;;
12725;SDS011;6427;49.754;6.106;2023-12-20T06:37:36;5.20;;;1.90;;
12725;SDS011;6427;49.754;6.106;2023-12-20T06:40:04;10.40;;;2.30;;
12725;SDS011;6427;49.754;6.106;2023-12-20T06:42:31;10.52;;;2.80;;
12725;SDS011;6427;49.754;6.106;2023-12-20T06:44:59;6.77;;;2.30;;
12725;SDS011;6427;49.754;6.106;2023-12-20T06:47:27;12.33;;;2.53;;
12725;SDS011;6427;49.754;6.106;2023-12-20T06:49:54;10.95;;;3.08;;
12725;SDS011;6427;49.754;6.106;2023-12-20T06:52:22;11.60;;;3.00;;
12725;SDS011;6427;49.754;6.106;2023-12-20T06:54:49;5.93;;;2.00;;
12725;SDS011;6427;49.754;6.106;2023-12-20T06:57:17;8.90;;;2.23;;
12725;SDS011;6427;49.754;6.106;2023-12-20T06:59:45;7.87;;;2.50;;
12725;SDS011;6427;49.754;6.106;2023-12-20T07:02:12;7.63;;;2.10;;
12725;SDS011;6427;49.754;6.106;2023-12-20T07:04:40;10.50;;;2.63;;
12725;SDS011;6427;49.754;6.106;2023-12-20T07:07:07;10.80;;;2.43;;
12725;SDS011;6427;49.754;6.106;2023-12-20T07:09:35;8.53;;;2.37;;
12725;SDS011;6427;49.754;6.106;2023-12-20T07:12:03;11.87;;;2.30;;
12725;SDS011;6427;49.754;6.106;2023-12-20T07:14:32;7.07;;;2.10;;
12725;SDS011;6427;49.754;6.106;2023-12-20T07:16:59;7.33;;;2.60;;
12725;SDS011;6427;49.754;6.106;2023-12-20T07:19:27;12.33;;;2.70;;
12725;SDS011;6427;49.754;6.106;2023-12-20T07:21:55;13.13;;;3.25;;
12725;SDS011;6427;49.754;6.106;2023-12-20T07:24:23;10.03;;;2.83;;
12725;SDS011;6427;49.754;6.106;2023-12-20T07:26:51;18.17;;;3.30;;
12725;SDS011;6427;49.754;6.106;2023-12-20T07:29:19;10.83;;;3.03;;
12725;SDS011;6427;49.754;6.106;2023-12-20T07:31:46;10.40;;;3.20;;
12725;SDS011;6427;49.754;6.106;2023-12-20T07:34:14;9.27;;;2.67;;
12725;SDS011;6427;49.754;6.106;2023-12-20T07:36:41;9.60;;;2.83;;
12725;SDS011;6427;49.754;6.106;2023-12-20T07:39:09;13.13;;;4.12;;
12725;SDS011;6427;49.754;6.106;2023-12-20T07:41:37;15.02;;;4.28;;
12725;SDS011;6427;49.754;6.106;2023-12-20T07:44:05;11.90;;;3.40;;
12725;SDS011;6427;49.754;6.106;2023-12-20T07:46:33;13.23;;;3.60;;
12725;SDS011;6427;49.754;6.106;2023-12-20T07:49:01;8.70;;;3.30;;
12725;SDS011;6427;49.754;6.106;2023-12-20T07:51:28;12.57;;;3.83;;
12725;SDS011;6427;49.754;6.106;2023-12-20T07:53:57;12.60;;;4.10;;
12725;SDS011;6427;49.754;6.106;2023-12-20T07:56:24;13.70;;;3.63;;
12725;SDS011;6427;49.754;6.106;2023-12-20T07:58:52;10.73;;;3.87;;
12725;SDS011;6427;49.754;6.106;2023-12-20T08:01:20;9.57;;;3.60;;
12725;SDS011;6427;49.754;6.106;2023-12-20T08:03:48;12.95;;;5.15;;
12725;SDS011;6427;49.754;6.106;2023-12-20T08:06:15;6.90;;;3.83;;
12725;SDS011;6427;49.754;6.106;2023-12-20T08:08:42;8.40;;;3.43;;
12725;SDS011;6427;49.754;6.106;2023-12-20T08:11:10;19.63;;;4.60;;
12725;SDS011;6427;49.754;6.106;2023-12-20T08:13:37;10.43;;;4.20;;
12725;SDS011;6427;49.754;6.106;2023-12-20T08:16:06;17.43;;;4.43;;
12725;SDS011;6427;49.754;6.106;2023-12-20T08:18:33;10.93;;;4.10;;
12725;SDS011;6427;49.754;6.106;2023-12-20T08:21:02;11.73;;;5.40;;
12725;SDS011;6427;49.754;6.106;2023-12-20T08:23:29;13.40;;;5.10;;
12725;SDS011;6427;49.754;6.106;2023-12-20T08:25:57;12.03;;;4.50;;
12725;SDS011;6427;49.754;6.106;2023-12-20T08:28:25;13.70;;;4.97;;
12725;SDS011;6427;49.754;6.106;2023-12-20T08:30:53;15.37;;;5.70;;
12725;SDS011;6427;49.754;6.106;2023-12-20T08:33:20;11.93;;;4.37;;
12725;SDS011;6427;49.754;6.106;2023-12-20T08:35:49;14.57;;;5.95;;
12725;SDS011;6427;49.754;6.106;2023-12-20T08:38:16;13.47;;;5.07;;
12725;SDS011;6427;49.754;6.106;2023-12-20T08:40:44;11.97;;;4.70;;
12725;SDS011;6427;49.754;6.106;2023-12-20T08:43:11;11.73;;;5.17;;
12725;SDS011;6427;49.754;6.106;2023-12-20T08:45:39;12.47;;;4.43;;
12725;SDS011;6427;49.754;6.106;2023-12-20T08:48:07;15.93;;;4.93;;
12725;SDS011;6427;49.754;6.106;2023-12-20T08:50:34;13.17;;;4.20;;
12725;SDS011;6427;49.754;6.106;2023-12-20T08:53:02;11.77;;;4.20;;
12725;SDS011;6427;49.754;6.106;2023-12-20T08:55:29;14.87;;;4.47;;
12725;SDS011;6427;49.754;6.106;2023-12-20T08:57:57;14.00;;;5.85;;
12725;SDS011;6427;49.754;6.106;2023-12-20T09:00:25;17.60;;;4.30;;
12725;SDS011;6427;49.754;6.106;2023-12-20T09:02:52;10.97;;;4.53;;
12725;SDS011;6427;49.754;6.106;2023-12-20T09:05:20;14.27;;;5.45;;
12725;SDS011;6427;49.754;6.106;2023-12-20T09:07:48;8.73;;;3.73;;
12725;SDS011;6427;49.754;6.106;2023-12-20T09:10:16;10.90;;;4.70;;
12725;SDS011;6427;49.754;6.106;2023-12-20T09:12:44;10.00;;;3.43;;
12725;SDS011;6427;49.754;6.106;2023-12-20T09:15:12;14.23;;;4.53;;
12725;SDS011;6427;49.754;6.106;2023-12-20T09:17:40;17.83;;;4.10;;
12725;SDS011;6427;49.754;6.106;2023-12-20T09:20:08;11.13;;;3.50;;
12725;SDS011;6427;49.754;6.106;2023-12-20T09:22:36;17.03;;;3.53;;
12725;SDS011;6427;49.754;6.106;2023-12-20T09:25:05;11.82;;;3.60;;
12725;SDS011;6427;49.754;6.106;2023-12-20T09:27:32;11.33;;;3.03;;
12725;SDS011;6427;49.754;6.106;2023-12-20T09:30:00;11.03;;;3.07;;
12725;SDS011;6427;49.754;6.106;2023-12-20T09:32:28;15.40;;;3.10;;
12725;SDS011;6427;49.754;6.106;2023-12-20T09:34:56;10.23;;;3.13;;
12725;SDS011;6427;49.754;6.106;2023-12-20T09:37:26;11.50;;;3.37;;
12725;SDS011;6427;49.754;6.106;2023-12-20T09:39:53;13.40;;;3.47;;
12725;SDS011;6427;49.754;6.106;2023-12-20T09:42:23;11.20;;;2.70;;
12725;SDS011;6427;49.754;6.106;2023-12-20T09:45:03;9.10;;;2.70;;
12725;SDS011;6427;49.754;6.106;2023-12-20T09:47:31;14.53;;;2.67;;
12725;SDS011;6427;49.754;6.106;2023-12-20T09:49:59;12.87;;;4.00;;
12725;SDS011;6427;49.754;6.106;2023-12-20T09:52:27;13.87;;;2.83;;
12725;SDS011;6427;49.754;6.106;2023-12-20T09:54:55;9.35;;;3.20;;
12725;SDS011;6427;49.754;6.106;2023-12-20T09:57:23;12.77;;;2.73;;
12725;SDS011;6427;49.754;6.106;2023-12-20T09:59:50;9.30;;;2.40;;
12725;SDS011;6427;49.754;6.106;2023-12-20T10:02:18;11.07;;;3.30;;
12725;SDS011;6427;49.754;6.106;2023-12-20T10:04:46;9.73;;;2.60;;
12725;SDS011;6427;49.754;6.106;2023-12-20T10:07:13;9.73;;;2.47;;
12725;SDS011;6427;49.754;6.106;2023-12-20T10:09:41;11.50;;;3.10;;
12725;SDS011;6427;49.754;6.106;2023-12-20T10:12:08;10.32;;;3.25;;
12725;SDS011;6427;49.754;6.106;2023-12-20T10:14:37;10.20;;;3.20;;
12725;SDS011;6427;49.754;6.106;2023-12-20T10:17:04;9.10;;;2.67;;
12725;SDS011;6427;49.754;6.106;2023-12-20T10:19:32;11.20;;;2.83;;
12725;SDS011;6427;49.754;6.106;2023-12-20T10:21:59;9.30;;;2.90;;
12725;SDS011;6427;49.754;6.106;2023-12-20T10:24:30;11.33;;;2.53;;
12725;SDS011;6427;49.754;6.106;2023-12-20T10:27:01;7.40;;;2.30;;
12725;SDS011;6427;49.754;6.106;2023-12-20T10:29:28;12.85;;;3.42;;
12725;SDS011;6427;49.754;6.106;2023-12-20T10:31:55;10.50;;;2.67;;
12725;SDS011;6427;49.754;6.106;2023-12-20T10:34:23;11.73;;;2.23;;
12725;SDS011;6427;49.754;6.106;2023-12-20T10:36:51;7.40;;;2.50;;
12725;SDS011;6427;49.754;6.106;2023-12-20T10:39:18;16.77;;;3.30;;
12725;SDS011;6427;49.754;6.106;2023-12-20T10:41:47;12.07;;;2.53;;
12725;SDS011;6427;49.754;6.106;2023-12-20T10:44:14;10.53;;;2.93;;
12725;SDS011;6427;49.754;6.106;2023-12-20T10:46:42;8.53;;;2.37;;
12725;SDS011;6427;49.754;6.106;2023-12-20T10:49:09;10.90;;;2.73;;
12725;SDS011;6427;49.754;6.106;2023-12-20T10:51:37;9.60;;;2.90;;
12725;SDS011;6427;49.754;6.106;2023-12-20T10:54:04;8.97;;;2.53;;
12725;SDS011;6427;49.754;6.106;2023-12-20T10:56:32;11.37;;;2.60;;
12725;SDS011;6427;49.754;6.106;2023-12-20T10:59:00;12.43;;;3.20;;
12725;SDS011;6427;49.754;6.106;2023-12-20T11:01:27;14.10;;;2.70;;
12725;SDS011;6427;49.754;6.106;2023-12-20T11:03:55;5.47;;;2.50;;
12725;SDS011;6427;49.754;6.106;2023-12-20T11:06:35;12.27;;;2.37;;
12725;SDS011;6427;49.754;6.106;2023-12-20T11:11:56;9.83;;;2.37;;
12725;SDS011;6427;49.754;6.106;2023-12-20T11:14:41;9.30;;;2.37;;
12725;SDS011;6427;49.754;6.106;2023-12-20T11:19:43;7.80;;;2.07;;
12725;SDS011;6427;49.754;6.106;2023-12-20T11:22:06;10.63;;;2.20;;
12725;SDS011;6427;49.754;6.106;2023-12-20T11:24:34;9.75;;;2.78;;
12725;SDS011;6427;49.754;6.106;2023-12-20T11:27:02;10.33;;;2.57;;
12725;SDS011;6427;49.754;6.106;2023-12-20T11:29:30;8.07;;;1.87;;
12725;SDS011;6427;49.754;6.106;2023-12-20T11:32:03;10.23;;;2.17;;
12725;SDS011;6427;49.754;6.106;2023-12-20T11:34:31;10.73;;;2.30;;
12725;SDS011;6427;49.754;6.106;2023-12-20T11:36:58;9.87;;;2.10;;
12725;SDS011;6427;49.754;6.106;2023-12-20T11:39:26;8.13;;;2.50;;
12725;SDS011;6427;49.754;6.106;2023-12-20T11:41:54;10.63;;;2.60;;
12725;SDS011;6427;49.754;6.106;2023-12-20T11:44:21;8.90;;;2.43;;
12725;SDS011;6427;49.754;6.106;2023-12-20T11:46:49;10.60;;;2.53;;
12725;SDS011;6427;49.754;6.106;2023-12-20T11:49:16;5.37;;;2.27;;
12725;SDS011;6427;49.754;6.106;2023-12-20T11:51:44;12.10;;;2.90;;
12725;SDS011;6427;49.754;6.106;2023-12-20T11:54:11;10.67;;;2.47;;
12725;SDS011;6427;49.754;6.106;2023-12-20T11:56:39;11.80;;;3.12;;
12725;SDS011;6427;49.754;6.106;2023-12-20T11:59:07;9.33;;;2.23;;
12725;SDS011;6427;49.754;6.106;2023-12-20T12:01:35;11.90;;;2.57;;
12725;SDS011;6427;49.754;6.106;2023-12-20T12:04:06;9.97;;;2.67;;
12725;SDS011;6427;49.754;6.106;2023-12-20T12:06:34;8.00;;;2.73;;
12725;SDS011;6427;49.754;6.106;2023-12-20T12:09:01;8.37;;;2.37;;
12725;SDS011;6427;49.754;6.106;2023-12-20T12:11:30;8.40;;;2.53;;
12725;SDS011;6427;49.754;6.106;2023-12-20T12:13:57;9.47;;;2.73;;
12725;SDS011;6427;49.754;6.106;2023-12-20T12:16:25;8.00;;;2.57;;
12725;SDS011;6427;49.754;6.106;2023-12-20T12:18:59;9.57;;;2.73;;
12725;SDS011;6427;49.754;6.106;2023-12-20T12:21:23;9.10;;;2.83;;
12725;SDS011;6427;49.754;6.106;2023-12-20T12:23:51;10.13;;;2.33;;
12725;SDS011;6427;49.754;6.106;2023-12-20T12:26:18;9.13;;;2.60;;
12725;SDS011;6427;49.754;6.106;2023-12-20T12:28:46;9.67;;;2.70;;
12725;SDS011;6427;49.754;6.106;2023-12-20T12:31:14;10.20;;;2.70;;
12725;SDS011;6427;49.754;6.106;2023-12-20T12:33:41;11.47;;;2.40;;
12725;SDS011;6427;49.754;6.106;2023-12-20T12:36:10;10.23;;;2.53;;
12725;SDS011;6427;49.754;6.106;2023-12-20T12:38:37;8.67;;;2.87;;
12725;SDS011;6427;49.754;6.106;2023-12-20T12:41:05;9.57;;;3.17;;
12725;SDS011;6427;49.754;6.106;2023-12-20T12:43:32;9.97;;;2.90;;
12725;SDS011;6427;49.754;6.106;2023-12-20T12:46:01;13.88;;;3.78;;
12725;SDS011;6427;49.754;6.106;2023-12-20T12:48:28;11.87;;;2.73;;
12725;SDS011;6427;49.754;6.106;2023-12-20T12:50:56;9.60;;;2.67;;
12725;SDS011;6427;49.754;6.106;2023-12-20T12:53:23;8.77;;;2.40;;
12725;SDS011;6427;49.754;6.106;2023-12-20T12:55:51;11.80;;;2.70;;
12725;SDS011;6427;49.754;6.106;2023-12-20T12:58:19;11.90;;;2.80;;
12725;SDS011;6427;49.754;6.106;2023-12-20T13:00:46;7.10;;;2.80;;
12725;SDS011;6427;49.754;6.106;2023-12-20T13:03:14;10.03;;;3.07;;
12725;SDS011;6427;49.754;6.106;2023-12-20T13:05:41;5.73;;;2.30;;
12725;SDS011;6427;49.754;6.106;2023-12-20T13:08:09;13.43;;;2.50;;
12725;SDS011;6427;49.754;6.106;2023-12-20T13:10:37;12.48;;;3.12;;
12725;SDS011;6427;49.754;6.106;2023-12-20T13:13:05;10.73;;;2.97;;
12725;SDS011;6427;49.754;6.106;2023-12-20T13:15:33;11.68;;;2.90;;
12725;SDS011;6427;49.754;6.106;2023-12-20T13:18:01;8.30;;;2.50;;
12725;SDS011;6427;49.754;6.106;2023-12-20T13:20:29;11.27;;;2.50;;
12725;SDS011;6427;49.754;6.106;2023-12-20T13:22:57;14.23;;;4.10;;
12725;SDS011;6427;49.754;6.106;2023-12-20T13:25:24;12.10;;;2.87;;
12725;SDS011;6427;49.754;6.106;2023-12-20T13:27:53;15.38;;;5.03;;
12725;SDS011;6427;49.754;6.106;2023-12-20T13:30:20;13.23;;;3.37;;
12725;SDS011;6427;49.754;6.106;2023-12-20T13:32:49;7.73;;;3.13;;
12725;SDS011;6427;49.754;6.106;2023-12-20T13:35:16;15.77;;;2.93;;
12725;SDS011;6427;49.754;6.106;2023-12-20T13:37:45;9.63;;;3.40;;
12725;SDS011;6427;49.754;6.106;2023-12-20T13:40:12;9.33;;;2.77;;
12725;SDS011;6427;49.754;6.106;2023-12-20T13:42:40;9.60;;;3.10;;
12725;SDS011;6427;49.754;6.106;2023-12-20T13:45:08;9.17;;;2.70;;
12725;SDS011;6427;49.754;6.106;2023-12-20T13:47:36;7.77;;;2.47;;
12725;SDS011;6427;49.754;6.106;2023-12-20T13:50:04;16.77;;;2.83;;
12725;SDS011;6427;49.754;6.106;2023-12-20T13:52:32;11.20;;;3.67;;
12725;SDS011;6427;49.754;6.106;2023-12-20T13:54:59;11.70;;;3.13;;
12725;SDS011;6427;49.754;6.106;2023-12-20T13:57:28;11.55;;;3.20;;
12725;SDS011;6427;49.754;6.106;2023-12-20T13:59:58;12.13;;;3.20;;
12725;SDS011;6427;49.754;6.106;2023-12-20T14:02:26;11.37;;;2.40;;
12725;SDS011;6427;49.754;6.106;2023-12-20T14:04:53;10.33;;;2.90;;
12725;SDS011;6427;49.754;6.106;2023-12-20T14:07:22;13.55;;;3.50;;
12725;SDS011;6427;49.754;6.106;2023-12-20T14:09:49;12.90;;;2.83;;
12725;SDS011;6427;49.754;6.106;2023-12-20T14:12:17;6.90;;;2.53;;
12725;SDS011;6427;49.754;6.106;2023-12-20T14:14:45;7.60;;;2.30;;
12725;SDS011;6427;49.754;6.106;2023-12-20T14:17:13;9.00;;;2.53;;
12725;SDS011;6427;49.754;6.106;2023-12-20T14:19:40;14.25;;;3.33;;
12725;SDS011;6427;49.754;6.106;2023-12-20T14:22:09;9.20;;;2.30;;
12725;SDS011;6427;49.754;6.106;2023-12-20T14:24:36;12.97;;;2.93;;
12725;SDS011;6427;49.754;6.106;2023-12-20T14:27:04;14.77;;;3.23;;
12725;SDS011;6427;49.754;6.106;2023-12-20T14:29:32;12.97;;;2.70;;
12725;SDS011;6427;49.754;6.106;2023-12-20T14:32:01;13.00;;;2.63;;
12725;SDS011;6427;49.754;6.106;2023-12-20T14:34:29;9.67;;;2.70;;
12725;SDS011;6427;49.754;6.106;2023-12-20T14:36:56;15.87;;;3.10;;
12725;SDS011;6427;49.754;6.106;2023-12-20T14:39:24;15.45;;;3.42;;
12725;SDS011;6427;49.754;6.106;2023-12-20T14:41:52;7.40;;;2.60;;
12725;SDS011;6427;49.754;6.106;2023-12-20T14:44:20;9.73;;;3.05;;
12725;SDS011;6427;49.754;6.106;2023-12-20T14:46:48;7.27;;;2.47;;
12725;SDS011;6427;49.754;6.106;2023-12-20T14:49:16;11.60;;;2.37;;
12725;SDS011;6427;49.754;6.106;2023-12-20T14:51:44;8.33;;;2.10;;
12725;SDS011;6427;49.754;6.106;2023-12-20T14:54:11;10.57;;;2.17;;
12725;SDS011;6427;49.754;6.106;2023-12-20T14:56:40;6.20;;;1.60;;
12725;SDS011;6427;49.754;6.106;2023-12-20T14:59:07;9.50;;;2.07;;
12725;SDS011;6427;49.754;6.106;2023-12-20T15:01:35;14.40;;;2.40;;
12725;SDS011;6427;49.754;6.106;2023-12-20T15:04:03;10.60;;;2.10;;